| time (UTC) | temp F | wind direction | speed MPH | gust MPH | rain 1hr in | rain 24hr in | rain mn in | humidity % | barometer mb |
| 20260508200017 | 58 | 168 | 5.0 | 14.0 | 0.00 | 0.00 | 0.00 | 47 | 1006.6 |
| 20260508195033 | 58 | 168 | 5.0 | 13.0 | 0.00 | 0.00 | 0.00 | 43 | 1006.8 |
| 20260508194030 | 56 | 178 | 5.0 | 13.0 | 0.00 | 0.00 | 0.00 | 51 | 1007.0 |
| 20260508193026 | 59 | 151 | 5.0 | 15.0 | 0.00 | 0.00 | 0.00 | 46 | 1007.2 |
| 20260508192023 | 58 | 185 | 5.0 | 14.0 | 0.00 | 0.00 | 0.00 | 47 | 1007.2 |
| 20260508191020 | 57 | 146 | 5.0 | 13.0 | 0.00 | 0.00 | 0.00 | 48 | 1007.3 |
| 20260508190016 | 58 | 164 | 5.0 | 13.0 | 0.00 | 0.00 | 0.00 | 44 | 1007.3 |
| 20260508185033 | 59 | 156 | 5.0 | 13.0 | 0.00 | 0.00 | 0.00 | 43 | 1007.3 |
| 20260508184031 | 59 | 156 | 5.0 | 16.0 | 0.00 | 0.00 | 0.00 | 42 | 1007.4 |
| 20260508183026 | 59 | 140 | 5.0 | 16.0 | 0.00 | 0.00 | 0.00 | 41 | 1007.5 |
| 20260508182023 | 59 | 150 | 5.0 | 11.0 | 0.00 | 0.00 | 0.00 | 42 | 1007.7 |
| 20260508181020 | 59 | 146 | 5.0 | 11.0 | 0.00 | 0.00 | 0.00 | 43 | 1007.7 |
| 20260508180018 | 57 | 161 | 5.0 | 14.0 | 0.00 | 0.00 | 0.00 | 46 | 1008.0 |
| 20260508175033 | 58 | 142 | 5.0 | 13.0 | 0.00 | 0.00 | 0.00 | 49 | 1008.2 |
| 20260508174030 | 60 | 163 | 6.0 | 13.0 | 0.00 | 0.00 | 0.00 | 44 | 1008.3 |
| 20260508173027 | 60 | 176 | 5.0 | 13.0 | 0.00 | 0.00 | 0.00 | 40 | 1008.4 |
| 20260508172023 | 61 | 161 | 5.0 | 13.0 | 0.00 | 0.00 | 0.00 | 41 | 1008.6 |
| 20260508171020 | 61 | 166 | 5.0 | 14.0 | 0.00 | 0.00 | 0.00 | 38 | 1008.7 |
| 20260508170017 | 59 | 179 | 4.0 | 10.0 | 0.00 | 0.00 | 0.00 | 45 | 1008.9 |
| 20260508165033 | 58 | 156 | 4.0 | 11.0 | 0.00 | 0.00 | 0.00 | 48 | 1009.0 |
| 20260508164030 | 58 | 154 | 5.0 | 11.0 | 0.00 | 0.00 | 0.00 | 49 | 1009.1 |
| 20260508163028 | 58 | 148 | 5.0 | 14.0 | 0.00 | 0.00 | 0.00 | 49 | 1009.1 |
| 20260508162046 | 57 | 172 | 5.0 | 13.0 | 0.00 | 0.00 | 0.00 | 52 | 1009.1 |
| 20260508161021 | 57 | 154 | 4.0 | 13.0 | 0.00 | 0.00 | 0.00 | 54 | 1009.3 |
| 20260508160017 | 57 | 172 | 4.0 | 11.0 | 0.00 | 0.00 | 0.00 | 55 | 1009.3 |
| 20260508155054 | 56 | 158 | 4.0 | 13.0 | 0.00 | 0.00 | 0.00 | 55 | 1009.4 |
| 20260508154050 | 56 | 162 | 4.0 | 13.0 | 0.00 | 0.00 | 0.00 | 55 | 1009.4 |
| 20260508153027 | 57 | 161 | 4.0 | 13.0 | 0.00 | 0.00 | 0.00 | 56 | 1009.4 |
| 20260508152024 | 58 | 170 | 4.0 | 13.0 | 0.00 | 0.00 | 0.00 | 52 | 1009.5 |
| 20260508151020 | 57 | 161 | 3.0 | 7.0 | 0.00 | 0.00 | 0.00 | 54 | 1009.6 |
| 20260508150037 | 57 | 141 | 4.0 | 9.0 | 0.00 | 0.00 | 0.00 | 55 | 1009.7 |
| 20260508145034 | 58 | 143 | 4.0 | 8.0 | 0.00 | 0.00 | 0.00 | 52 | 1009.6 |
| 20260508144030 | 59 | 137 | 3.0 | 7.0 | 0.00 | 0.00 | 0.00 | 49 | 1009.7 |
| 20260508143047 | 60 | 150 | 2.0 | 8.0 | 0.00 | 0.00 | 0.00 | 45 | 1009.8 |
| 20260508142024 | 60 | 216 | 3.0 | 7.0 | 0.00 | 0.00 | 0.00 | 37 | 1010.0 |
| 20260508141042 | 60 | 208 | 3.0 | 8.0 | 0.00 | 0.00 | 0.00 | 39 | 1010.0 |
| 20260508140017 | 59 | 234 | 4.0 | 10.0 | 0.00 | 0.00 | 0.00 | 40 | 1009.9 |
| 20260508135034 | 58 | 223 | 3.0 | 9.0 | 0.00 | 0.00 | 0.00 | 41 | 1010.0 |
| 20260508134030 | 57 | 205 | 4.0 | 9.0 | 0.00 | 0.00 | 0.00 | 41 | 1010.0 |
| 20260508133027 | 56 | 231 | 3.0 | 9.0 | 0.00 | 0.00 | 0.00 | 45 | 1010.0 |
| 20260508132025 | 55 | 248 | 4.0 | 8.0 | 0.00 | 0.00 | 0.00 | 48 | 1010.0 |
| 20260508131040 | 54 | 228 | 3.0 | 8.0 | 0.00 | 0.00 | 0.00 | 51 | 1010.0 |
| 20260508130017 | 53 | 237 | 3.0 | 7.0 | 0.00 | 0.00 | 0.00 | 53 | 1010.1 |
| 20260508125054 | 52 | 238 | 3.0 | 8.0 | 0.00 | 0.00 | 0.00 | 55 | 1010.2 |
| 20260508124030 | 51 | 240 | 3.0 | 8.0 | 0.00 | 0.00 | 0.00 | 56 | 1010.3 |
| 20260508123026 | 49 | 239 | 3.0 | 6.0 | 0.00 | 0.00 | 0.00 | 58 | 1010.1 |
| 20260508122023 | 48 | 241 | 2.0 | 7.0 | 0.00 | 0.00 | 0.00 | 60 | 1010.1 |
| 20260508121020 | 46 | 242 | 3.0 | 8.0 | 0.00 | 0.00 | 0.00 | 64 | 1010.1 |
| 20260508120016 | 43 | 257 | 3.0 | 7.0 | 0.00 | 0.00 | 0.00 | 69 | 1010.1 |
| 20260508115053 | 42 | 250 | 2.0 | 6.0 | 0.00 | 0.00 | 0.00 | 70 | 1010.1 |
| 20260508114030 | 42 | 265 | 2.0 | 6.0 | 0.00 | 0.00 | 0.00 | 71 | 1010.0 |
| 20260508113028 | 41 | 263 | 2.0 | 4.0 | 0.00 | 0.00 | 0.00 | 72 | 1010.0 |
| 20260508112024 | 40 | 258 | 2.0 | 7.0 | 0.00 | 0.00 | 0.00 | 73 | 1010.0 |
| 20260508111039 | 40 | 257 | 2.0 | 4.0 | 0.00 | 0.00 | 0.00 | 75 | 1010.1 |
| 20260508110016 | 39 | 265 | 2.0 | 4.0 | 0.00 | 0.00 | 0.00 | 75 | 1010.0 |
| 20260508105032 | 39 | 265 | 2.0 | 4.0 | 0.00 | 0.00 | 0.00 | 75 | 1010.0 |
| 20260508104029 | 38 | 267 | 2.0 | 3.0 | 0.00 | 0.00 | 0.00 | 76 | 1009.9 |
| 20260508103026 | 38 | 264 | 2.0 | 4.0 | 0.00 | 0.00 | 0.00 | 76 | 1010.0 |
| 20260508102022 | 38 | 237 | 1.0 | 3.0 | 0.00 | 0.00 | 0.00 | 76 | 1010.0 |
| 20260508101039 | 38 | 235 | 1.0 | 3.0 | 0.00 | 0.00 | 0.00 | 75 | 1010.0 |
| 20260508100036 | 38 | 220 | 1.0 | 3.0 | 0.00 | 0.00 | 0.00 | 75 | 1010.1 |
| 20260508095032 | 38 | 238 | 1.0 | 3.0 | 0.00 | 0.00 | 0.00 | 75 | 1010.1 |
| 20260508094029 | 38 | 254 | 1.0 | 4.0 | 0.00 | 0.00 | 0.00 | 74 | 1010.2 |
| 20260508093105 | 38 | 243 | 1.0 | 3.0 | 0.00 | 0.00 | 0.00 | 73 | 1010.1 |
| 20260508092022 | 37 | 253 | 1.0 | 4.0 | 0.00 | 0.00 | 0.00 | 73 | 1010.3 |
| 20260508091018 | 37 | 244 | 1.0 | 2.0 | 0.00 | 0.00 | 0.00 | 72 | 1010.4 |
| 20260508090036 | 37 | 240 | 1.0 | 3.0 | 0.00 | 0.00 | 0.00 | 73 | 1010.5 |
| 20260508085113 | 37 | 195 | 1.0 | 3.0 | 0.00 | 0.00 | 0.00 | 72 | 1010.7 |
| 20260508084028 | 38 | 254 | 1.0 | 3.0 | 0.00 | 0.00 | 0.00 | 71 | 1010.7 |
| 20260508083025 | 38 | 264 | 2.0 | 4.0 | 0.00 | 0.00 | 0.00 | 70 | 1010.7 |
| 20260508082043 | 38 | 266 | 2.0 | 7.0 | 0.00 | 0.00 | 0.00 | 69 | 1010.7 |
| 20260508081039 | 38 | 267 | 2.0 | 6.0 | 0.00 | 0.00 | 0.00 | 69 | 1010.7 |
| 20260508080035 | 38 | 267 | 3.0 | 6.0 | 0.00 | 0.00 | 0.00 | 69 | 1010.7 |
| 20260508075031 | 38 | 270 | 3.0 | 7.0 | 0.00 | 0.00 | 0.00 | 68 | 1010.8 |
| 20260508074028 | 39 | 267 | 2.0 | 4.0 | 0.00 | 0.00 | 0.00 | 67 | 1011.0 |
| 20260508073025 | 39 | 268 | 3.0 | 7.0 | 0.00 | 0.00 | 0.00 | 67 | 1011.1 |
| 20260508072021 | 39 | 269 | 3.0 | 6.0 | 0.00 | 0.00 | 0.00 | 67 | 1011.3 |
| 20260508071018 | 39 | 266 | 3.0 | 6.0 | 0.00 | 0.00 | 0.00 | 67 | 1011.4 |
| 20260508070055 | 39 | 266 | 3.0 | 6.0 | 0.00 | 0.00 | 0.00 | 66 | 1011.5 |
| 20260508065031 | 39 | 260 | 2.0 | 6.0 | 0.00 | 0.00 | 0.00 | 66 | 1011.6 |
| 20260508064048 | 39 | 257 | 2.0 | 7.0 | 0.00 | 0.00 | 0.00 | 66 | 1011.7 |
| 20260508063024 | 39 | 251 | 2.0 | 6.0 | 0.00 | 0.00 | 0.00 | 66 | 1011.6 |
| 20260508062101 | 39 | 258 | 2.0 | 4.0 | 0.00 | 0.00 | 0.00 | 66 | 1011.7 |
| 20260508061017 | 39 | 257 | 2.0 | 4.0 | 0.00 | 0.00 | 0.00 | 67 | 1011.8 |
| 20260508060035 | 39 | 257 | 2.0 | 6.0 | 0.00 | 0.00 | 0.00 | 67 | 1011.8 |
| 20260508055051 | 39 | 260 | 3.0 | 6.0 | 0.00 | 0.00 | 0.00 | 68 | 1011.8 |
| 20260508054027 | 39 | 259 | 2.0 | 6.0 | 0.00 | 0.00 | 0.00 | 68 | 1011.8 |
| 20260508053024 | 39 | 258 | 2.0 | 4.0 | 0.00 | 0.00 | 0.00 | 69 | 1011.8 |
| 20260508052017 | 39 | 253 | 2.0 | 4.0 | 0.00 | 0.00 | 0.00 | 69 | 1011.8 |
| 20260508051030 | 39 | 256 | 1.0 | 4.0 | 0.00 | 0.00 | 0.00 | 69 | 1011.8 |
| 20260508050025 | 39 | 252 | 1.0 | 4.0 | 0.00 | 0.00 | 0.00 | 69 | 1011.8 |
| 20260508045040 | 39 | 256 | 1.0 | 3.0 | 0.00 | 0.00 | 0.00 | 69 | 1011.8 |
| 20260508044017 | 39 | 246 | 1.0 | 4.0 | 0.00 | 0.00 | 0.00 | 70 | 1011.8 |
| 20260508043032 | 39 | 252 | 1.0 | 3.0 | 0.00 | 0.00 | 0.00 | 70 | 1011.8 |
| 20260508042029 | 39 | 264 | 1.0 | 4.0 | 0.00 | 0.00 | 0.00 | 70 | 1011.8 |
| 20260508041106 | 39 | 248 | 1.0 | 3.0 | 0.00 | 0.00 | 0.00 | 70 | 1011.8 |
| 20260508040022 | 39 | 229 | 1.0 | 3.0 | 0.00 | 0.00 | 0.00 | 71 | 1011.8 |
| 20260508035018 | 39 | 250 | 1.0 | 3.0 | 0.00 | 0.00 | 0.00 | 71 | 1011.8 |
| 20260508034035 | 39 | 246 | 1.0 | 4.0 | 0.00 | 0.00 | 0.00 | 71 | 1011.9 |
| 20260508033032 | 40 | 263 | 1.0 | 3.0 | 0.00 | 0.00 | 0.00 | 70 | 1011.9 |
| 20260508032048 | 40 | 257 | 1.0 | 3.0 | 0.00 | 0.00 | 0.00 | 69 | 1011.9 |
| 20260508031025 | 40 | 252 | 1.0 | 2.0 | 0.00 | 0.00 | 0.00 | 68 | 1012.0 |
| 20260508030022 | 41 | 267 | 1.0 | 2.0 | 0.00 | 0.00 | 0.00 | 68 | 1011.9 |
| 20260508025019 | 41 | 257 | 1.0 | 2.0 | 0.00 | 0.00 | 0.00 | 68 | 1011.9 |
| 20260508024035 | 41 | 216 | 1.0 | 4.0 | 0.00 | 0.00 | 0.00 | 68 | 1011.8 |
| 20260508023032 | 40 | 213 | 1.0 | 3.0 | 0.00 | 0.00 | 0.00 | 68 | 1011.7 |
| 20260508022029 | 41 | 213 | 1.0 | 4.0 | 0.00 | 0.00 | 0.00 | 68 | 1011.7 |
| 20260508021025 | 41 | 222 | 1.0 | 3.0 | 0.00 | 0.00 | 0.00 | 67 | 1011.6 |
| 20260508020022 | 41 | 206 | 1.0 | 7.0 | 0.00 | 0.00 | 0.00 | 66 | 1011.5 |
| 20260508015039 | 41 | 201 | 1.0 | 4.0 | 0.00 | 0.00 | 0.00 | 66 | 1011.4 |
| 20260508014035 | 41 | 197 | 1.0 | 6.0 | 0.00 | 0.00 | 0.00 | 66 | 1011.1 |
| 20260508013032 | 41 | 207 | 2.0 | 6.0 | 0.00 | 0.00 | 0.00 | 66 | 1011.0 |
| 20260508012028 | 41 | 191 | 3.0 | 7.0 | 0.00 | 0.00 | 0.00 | 67 | 1010.8 |
| 20260508011025 | 41 | 184 | 2.0 | 7.0 | 0.00 | 0.00 | 0.00 | 68 | 1010.8 |
| 20260508010021 | 42 | 194 | 2.0 | 8.0 | 0.00 | 0.00 | 0.00 | 69 | 1010.8 |
| 20260508005037 | 42 | 176 | 2.0 | 7.0 | 0.00 | 0.00 | 0.00 | 71 | 1010.7 |
| 20260508004034 | 42 | 169 | 3.0 | 7.0 | 0.00 | 0.00 | 0.00 | 71 | 1010.7 |
| 20260508003031 | 42 | 200 | 3.0 | 7.0 | 0.00 | 0.00 | 0.00 | 71 | 1010.7 |
| 20260508002027 | 42 | 203 | 3.0 | 9.0 | 0.00 | 0.00 | 0.00 | 72 | 1010.7 |
| 20260508001043 | 43 | 188 | 3.0 | 8.0 | 0.00 | 0.00 | 0.00 | 72 | 1010.6 |
| 20260508000020 | 43 | 178 | 3.0 | 9.0 | 0.00 | 0.00 | 0.00 | 71 | 1010.6 |
| 20260507235036 | 43 | 168 | 3.0 | 8.0 | 0.00 | 0.00 | 0.00 | 72 | 1010.6 |
| 20260507234034 | 44 | 165 | 3.0 | 10.0 | 0.00 | 0.00 | 0.00 | 71 | 1010.6 |
| 20260507233030 | 44 | 186 | 3.0 | 13.0 | 0.00 | 0.00 | 0.00 | 71 | 1010.7 |
| 20260507232026 | 44 | 164 | 3.0 | 9.0 | 0.00 | 0.00 | 0.00 | 70 | 1010.8 |
| 20260507231023 | 44 | 172 | 4.0 | 9.0 | 0.00 | 0.00 | 0.00 | 69 | 1010.9 |
| 20260507230019 | 46 | 182 | 4.0 | 10.0 | 0.00 | 0.00 | 0.00 | 67 | 1010.8 |
| 20260507225016 | 46 | 168 | 4.0 | 9.0 | 0.00 | 0.00 | 0.00 | 66 | 1010.9 |
| 20260507224033 | 45 | 151 | 4.0 | 9.0 | 0.00 | 0.00 | 0.00 | 67 | 1010.9 |
| 20260507223029 | 44 | 164 | 3.0 | 10.0 | 0.00 | 0.00 | 0.00 | 68 | 1011.1 |
| 20260507222026 | 44 | 157 | 4.0 | 9.0 | 0.00 | 0.00 | 0.00 | 67 | 1011.2 |
| 20260507221022 | 45 | 188 | 3.0 | 9.0 | 0.00 | 0.00 | 0.00 | 65 | 1011.2 |
| 20260507220019 | 46 | 158 | 4.0 | 9.0 | 0.00 | 0.00 | 0.00 | 63 | 1011.1 |
| 20260507215016 | 47 | 155 | 3.0 | 10.0 | 0.00 | 0.00 | 0.00 | 60 | 1011.0 |
| 20260507214032 | 46 | 148 | 4.0 | 10.0 | 0.00 | 0.00 | 0.00 | 61 | 1011.0 |
| 20260507213029 | 47 | 167 | 3.0 | 9.0 | 0.00 | 0.00 | 0.00 | 61 | 1011.1 |
| 20260507212026 | 46 | 154 | 4.0 | 10.0 | 0.00 | 0.00 | 0.00 | 61 | 1011.2 |
| 20260507211021 | 45 | 166 | 4.0 | 9.0 | 0.00 | 0.00 | 0.00 | 61 | 1011.2 |
| 20260507210017 | 47 | 158 | 4.0 | 11.0 | 0.00 | 0.00 | 0.00 | 60 | 1011.4 |
| 20260507205033 | 48 | 180 | 5.0 | 11.0 | 0.00 | 0.00 | 0.00 | 58 | 1011.4 |
| 20260507204049 | 48 | 180 | 5.0 | 10.0 | 0.00 | 0.00 | 0.00 | 59 | 1011.5 |
| 20260507203026 | 46 | 145 | 4.0 | 11.0 | 0.00 | 0.00 | 0.00 | 62 | 1011.6 |
| 20260507202023 | 46 | 142 | 3.0 | 10.0 | 0.00 | 0.00 | 0.00 | 63 | 1011.7 |
| 20260507201039 | 47 | 133 | 4.0 | 9.0 | 0.00 | 0.00 | 0.00 | 61 | 1011.7 |